KBQK/BQK METAR and TAF weather

Enter ICAO airport designator
Station Type Date Time Source
KBQK METAR 2019/02/23 17:55 UTC NOAA

KBQK 231755Z AUTO 06009KT 3SM BR OVC004 17/16 A3016 RMK AO2


Station Type Date Time Source
KBQK Decoded METAR 2019/02/23 17:55 UTC NOAA

Brunswick / Glynco, GA, United States (KBQK) 31-15N 081-28W
Feb 23, 2019 - 12:55 PM EST / 2019.02.23 1755 UTC
Wind: from the ENE (060 degrees) at 10 MPH (9 KT):0
Visibility: 3 mile(s):0
Sky conditions: overcast
Weather: mist
Temperature: 62 F (17 C)
Dew Point: 60 F (16 C)
Relative Humidity: 93%
Pressure (altimeter): 30.16 in. Hg (1021 hPa)
ob: KBQK 231755Z AUTO 06009KT 3SM BR OVC004 17/16 A3016 RMK AO2
cycle: 18

Station Type Date Time Source
KBQK TAF UTC NOAA

Error!


Example: see airport list